sensor_id;sensor_type;location;lat;lon;timestamp;P1;durP1;ratioP1;P2;durP2;ratioP2
44764;SDS011;30484;52.382;5.260;2023-08-21T00:00:05;7.00;;;1.98;;
44764;SDS011;30484;52.382;5.260;2023-08-21T00:02:35;9.80;;;2.05;;
44764;SDS011;30484;52.382;5.260;2023-08-21T00:05:04;9.80;;;2.53;;
44764;SDS011;30484;52.382;5.260;2023-08-21T00:07:35;6.85;;;2.10;;
44764;SDS011;30484;52.382;5.260;2023-08-21T00:10:04;12.38;;;2.33;;
44764;SDS011;30484;52.382;5.260;2023-08-21T00:12:34;9.45;;;2.25;;
44764;SDS011;30484;52.382;5.260;2023-08-21T00:15:03;7.90;;;2.53;;
44764;SDS011;30484;52.382;5.260;2023-08-21T00:17:33;6.07;;;2.30;;
44764;SDS011;30484;52.382;5.260;2023-08-21T00:20:02;10.73;;;2.30;;
44764;SDS011;30484;52.382;5.260;2023-08-21T00:22:32;10.23;;;2.78;;
44764;SDS011;30484;52.382;5.260;2023-08-21T00:25:03;8.88;;;2.25;;
44764;SDS011;30484;52.382;5.260;2023-08-21T00:27:32;11.60;;;2.60;;
44764;SDS011;30484;52.382;5.260;2023-08-21T00:30:01;10.57;;;2.20;;
44764;SDS011;30484;52.382;5.260;2023-08-21T00:32:30;9.52;;;2.60;;
44764;SDS011;30484;52.382;5.260;2023-08-21T00:34:59;9.82;;;2.75;;
44764;SDS011;30484;52.382;5.260;2023-08-21T00:37:28;12.60;;;2.75;;
44764;SDS011;30484;52.382;5.260;2023-08-21T00:39:58;8.15;;;2.17;;
44764;SDS011;30484;52.382;5.260;2023-08-21T00:42:27;5.40;;;2.05;;
44764;SDS011;30484;52.382;5.260;2023-08-21T00:44:56;10.00;;;2.60;;
44764;SDS011;30484;52.382;5.260;2023-08-21T00:47:24;9.45;;;2.20;;
44764;SDS011;30484;52.382;5.260;2023-08-21T00:49:53;9.98;;;2.65;;
44764;SDS011;30484;52.382;5.260;2023-08-21T00:52:23;9.20;;;2.10;;
44764;SDS011;30484;52.382;5.260;2023-08-21T00:54:52;7.05;;;2.15;;
44764;SDS011;30484;52.382;5.260;2023-08-21T00:57:23;7.80;;;2.13;;
44764;SDS011;30484;52.382;5.260;2023-08-21T00:59:52;6.97;;;2.22;;
44764;SDS011;30484;52.382;5.260;2023-08-21T01:02:21;8.93;;;2.42;;
44764;SDS011;30484;52.382;5.260;2023-08-21T01:04:50;10.82;;;2.58;;
44764;SDS011;30484;52.382;5.260;2023-08-21T01:07:19;10.80;;;2.42;;
44764;SDS011;30484;52.382;5.260;2023-08-21T01:09:49;10.50;;;2.55;;
44764;SDS011;30484;52.382;5.260;2023-08-21T01:12:29;7.88;;;2.33;;
44764;SDS011;30484;52.382;5.260;2023-08-21T01:15:03;7.68;;;2.22;;
44764;SDS011;30484;52.382;5.260;2023-08-21T01:17:36;10.45;;;2.10;;
44764;SDS011;30484;52.382;5.260;2023-08-21T01:20:07;8.35;;;2.40;;
44764;SDS011;30484;52.382;5.260;2023-08-21T01:22:37;5.63;;;2.15;;
44764;SDS011;30484;52.382;5.260;2023-08-21T01:25:08;6.10;;;2.30;;
44764;SDS011;30484;52.382;5.260;2023-08-21T01:27:37;6.97;;;2.15;;
44764;SDS011;30484;52.382;5.260;2023-08-21T01:30:11;10.63;;;2.20;;
44764;SDS011;30484;52.382;5.260;2023-08-21T01:32:43;11.30;;;2.70;;
44764;SDS011;30484;52.382;5.260;2023-08-21T01:35:22;6.50;;;1.98;;
44764;SDS011;30484;52.382;5.260;2023-08-21T01:37:51;10.52;;;2.67;;
44764;SDS011;30484;52.382;5.260;2023-08-21T01:40:22;10.82;;;2.40;;
44764;SDS011;30484;52.382;5.260;2023-08-21T01:42:52;9.38;;;2.10;;
44764;SDS011;30484;52.382;5.260;2023-08-21T01:45:23;4.32;;;1.80;;
44764;SDS011;30484;52.382;5.260;2023-08-21T01:47:54;8.60;;;2.03;;
44764;SDS011;30484;52.382;5.260;2023-08-21T01:50:32;8.77;;;2.42;;
44764;SDS011;30484;52.382;5.260;2023-08-21T01:53:00;10.40;;;2.28;;
44764;SDS011;30484;52.382;5.260;2023-08-21T01:55:31;8.20;;;2.30;;
44764;SDS011;30484;52.382;5.260;2023-08-21T01:57:59;12.30;;;2.55;;
44764;SDS011;30484;52.382;5.260;2023-08-21T02:00:28;7.57;;;2.22;;
44764;SDS011;30484;52.382;5.260;2023-08-21T02:02:57;7.60;;;2.30;;
44764;SDS011;30484;52.382;5.260;2023-08-21T02:05:25;5.53;;;2.10;;
44764;SDS011;30484;52.382;5.260;2023-08-21T02:07:54;8.68;;;2.72;;
44764;SDS011;30484;52.382;5.260;2023-08-21T02:10:23;7.13;;;2.30;;
44764;SDS011;30484;52.382;5.260;2023-08-21T02:12:53;8.15;;;2.15;;
44764;SDS011;30484;52.382;5.260;2023-08-21T02:15:24;9.88;;;2.22;;
44764;SDS011;30484;52.382;5.260;2023-08-21T02:17:52;5.38;;;2.20;;
44764;SDS011;30484;52.382;5.260;2023-08-21T02:20:21;9.65;;;2.97;;
44764;SDS011;30484;52.382;5.260;2023-08-21T02:22:49;9.05;;;2.63;;
44764;SDS011;30484;52.382;5.260;2023-08-21T02:25:18;9.57;;;2.33;;
44764;SDS011;30484;52.382;5.260;2023-08-21T02:27:47;6.95;;;2.13;;
44764;SDS011;30484;52.382;5.260;2023-08-21T02:30:17;6.97;;;2.10;;
44764;SDS011;30484;52.382;5.260;2023-08-21T02:32:46;7.70;;;2.45;;
44764;SDS011;30484;52.382;5.260;2023-08-21T02:35:15;10.43;;;2.60;;
44764;SDS011;30484;52.382;5.260;2023-08-21T02:37:44;8.75;;;2.45;;
44764;SDS011;30484;52.382;5.260;2023-08-21T02:40:12;7.10;;;2.35;;
44764;SDS011;30484;52.382;5.260;2023-08-21T02:42:41;8.32;;;2.28;;
44764;SDS011;30484;52.382;5.260;2023-08-21T02:45:10;11.57;;;2.67;;
44764;SDS011;30484;52.382;5.260;2023-08-21T02:47:40;9.57;;;2.20;;
44764;SDS011;30484;52.382;5.260;2023-08-21T02:50:10;6.32;;;2.30;;
44764;SDS011;30484;52.382;5.260;2023-08-21T02:52:38;9.60;;;2.33;;
44764;SDS011;30484;52.382;5.260;2023-08-21T02:55:07;9.32;;;2.60;;
44764;SDS011;30484;52.382;5.260;2023-08-21T02:57:36;7.65;;;2.00;;
44764;SDS011;30484;52.382;5.260;2023-08-21T03:00:05;8.40;;;2.20;;
44764;SDS011;30484;52.382;5.260;2023-08-21T03:02:39;10.30;;;2.50;;
44764;SDS011;30484;52.382;5.260;2023-08-21T03:05:10;10.18;;;2.80;;
44764;SDS011;30484;52.382;5.260;2023-08-21T03:07:40;5.30;;;2.50;;
44764;SDS011;30484;52.382;5.260;2023-08-21T03:10:09;9.48;;;2.65;;
44764;SDS011;30484;52.382;5.260;2023-08-21T03:12:37;11.02;;;2.65;;
44764;SDS011;30484;52.382;5.260;2023-08-21T03:15:06;16.85;;;3.05;;
44764;SDS011;30484;52.382;5.260;2023-08-21T03:17:35;5.90;;;2.42;;
44764;SDS011;30484;52.382;5.260;2023-08-21T03:20:06;9.25;;;2.78;;
44764;SDS011;30484;52.382;5.260;2023-08-21T03:22:35;8.85;;;2.50;;
44764;SDS011;30484;52.382;5.260;2023-08-21T03:25:05;6.55;;;2.60;;
44764;SDS011;30484;52.382;5.260;2023-08-21T03:27:34;12.68;;;2.47;;
44764;SDS011;30484;52.382;5.260;2023-08-21T03:30:05;9.00;;;2.70;;
44764;SDS011;30484;52.382;5.260;2023-08-21T03:32:36;8.05;;;2.63;;
44764;SDS011;30484;52.382;5.260;2023-08-21T03:35:07;10.82;;;2.97;;
44764;SDS011;30484;52.382;5.260;2023-08-21T03:37:36;9.27;;;2.65;;
44764;SDS011;30484;52.382;5.260;2023-08-21T03:40:05;11.63;;;3.25;;
44764;SDS011;30484;52.382;5.260;2023-08-21T03:42:35;5.22;;;2.40;;
44764;SDS011;30484;52.382;5.260;2023-08-21T03:45:04;6.70;;;2.42;;
44764;SDS011;30484;52.382;5.260;2023-08-21T03:47:44;12.48;;;2.50;;
44764;SDS011;30484;52.382;5.260;2023-08-21T03:50:19;9.27;;;3.08;;
44764;SDS011;30484;52.382;5.260;2023-08-21T03:52:47;6.95;;;2.63;;
44764;SDS011;30484;52.382;5.260;2023-08-21T03:55:16;11.50;;;3.10;;
44764;SDS011;30484;52.382;5.260;2023-08-21T03:57:45;10.32;;;2.67;;
44764;SDS011;30484;52.382;5.260;2023-08-21T04:00:13;10.55;;;2.70;;
44764;SDS011;30484;52.382;5.260;2023-08-21T04:02:42;8.70;;;2.80;;
44764;SDS011;30484;52.382;5.260;2023-08-21T04:05:11;9.95;;;2.63;;
44764;SDS011;30484;52.382;5.260;2023-08-21T04:07:52;9.27;;;3.00;;
44764;SDS011;30484;52.382;5.260;2023-08-21T04:12:53;6.85;;;2.65;;
44764;SDS011;30484;52.382;5.260;2023-08-21T04:15:22;9.57;;;2.90;;
44764;SDS011;30484;52.382;5.260;2023-08-21T04:17:51;9.02;;;2.67;;
44764;SDS011;30484;52.382;5.260;2023-08-21T04:20:20;11.75;;;3.10;;
44764;SDS011;30484;52.382;5.260;2023-08-21T04:22:58;18.27;;;3.90;;
44764;SDS011;30484;52.382;5.260;2023-08-21T04:25:27;6.93;;;2.60;;
44764;SDS011;30484;52.382;5.260;2023-08-21T04:27:55;8.75;;;2.85;;
44764;SDS011;30484;52.382;5.260;2023-08-21T04:30:24;10.60;;;3.20;;
44764;SDS011;30484;52.382;5.260;2023-08-21T04:32:52;7.07;;;3.17;;
44764;SDS011;30484;52.382;5.260;2023-08-21T04:35:21;10.35;;;3.85;;
44764;SDS011;30484;52.382;5.260;2023-08-21T04:37:49;11.40;;;2.67;;
44764;SDS011;30484;52.382;5.260;2023-08-21T04:40:19;8.95;;;2.83;;
44764;SDS011;30484;52.382;5.260;2023-08-21T04:42:48;8.90;;;3.35;;
44764;SDS011;30484;52.382;5.260;2023-08-21T04:45:17;13.70;;;3.63;;
44764;SDS011;30484;52.382;5.260;2023-08-21T04:47:45;8.57;;;3.30;;
44764;SDS011;30484;52.382;5.260;2023-08-21T04:50:16;10.80;;;3.38;;
44764;SDS011;30484;52.382;5.260;2023-08-21T04:52:45;8.98;;;3.03;;
44764;SDS011;30484;52.382;5.260;2023-08-21T04:55:15;11.07;;;3.35;;
44764;SDS011;30484;52.382;5.260;2023-08-21T04:57:45;14.35;;;3.25;;
44764;SDS011;30484;52.382;5.260;2023-08-21T05:00:14;11.80;;;3.78;;
44764;SDS011;30484;52.382;5.260;2023-08-21T05:02:47;11.73;;;3.83;;
44764;SDS011;30484;52.382;5.260;2023-08-21T05:05:16;10.77;;;3.50;;
44764;SDS011;30484;52.382;5.260;2023-08-21T05:10:44;16.00;;;3.58;;
44764;SDS011;30484;52.382;5.260;2023-08-21T05:13:14;10.98;;;3.50;;
44764;SDS011;30484;52.382;5.260;2023-08-21T05:15:44;9.05;;;3.30;;
44764;SDS011;30484;52.382;5.260;2023-08-21T05:18:19;11.02;;;3.42;;
44764;SDS011;30484;52.382;5.260;2023-08-21T05:20:47;8.07;;;3.20;;
44764;SDS011;30484;52.382;5.260;2023-08-21T05:23:17;15.35;;;3.90;;
44764;SDS011;30484;52.382;5.260;2023-08-21T05:25:46;14.88;;;4.22;;
44764;SDS011;30484;52.382;5.260;2023-08-21T05:28:17;10.13;;;3.38;;
44764;SDS011;30484;52.382;5.260;2023-08-21T05:30:46;15.25;;;4.80;;
44764;SDS011;30484;52.382;5.260;2023-08-21T05:33:16;9.50;;;3.40;;
44764;SDS011;30484;52.382;5.260;2023-08-21T05:35:44;8.77;;;3.33;;
44764;SDS011;30484;52.382;5.260;2023-08-21T05:38:15;11.43;;;3.47;;
44764;SDS011;30484;52.382;5.260;2023-08-21T05:40:44;12.43;;;3.58;;
44764;SDS011;30484;52.382;5.260;2023-08-21T05:43:12;8.20;;;3.53;;
44764;SDS011;30484;52.382;5.260;2023-08-21T05:45:42;8.80;;;3.33;;
44764;SDS011;30484;52.382;5.260;2023-08-21T05:48:11;10.25;;;3.95;;
44764;SDS011;30484;52.382;5.260;2023-08-21T05:50:42;10.82;;;4.20;;
44764;SDS011;30484;52.382;5.260;2023-08-21T05:53:11;12.55;;;3.90;;
44764;SDS011;30484;52.382;5.260;2023-08-21T05:55:39;15.68;;;3.92;;
44764;SDS011;30484;52.382;5.260;2023-08-21T05:58:11;12.68;;;3.78;;
44764;SDS011;30484;52.382;5.260;2023-08-21T06:00:40;15.60;;;3.70;;
44764;SDS011;30484;52.382;5.260;2023-08-21T06:03:10;18.15;;;3.40;;
44764;SDS011;30484;52.382;5.260;2023-08-21T06:05:39;12.82;;;3.30;;
44764;SDS011;30484;52.382;5.260;2023-08-21T06:08:09;6.70;;;3.13;;
44764;SDS011;30484;52.382;5.260;2023-08-21T06:10:38;8.48;;;2.90;;
44764;SDS011;30484;52.382;5.260;2023-08-21T06:13:06;12.02;;;3.72;;
44764;SDS011;30484;52.382;5.260;2023-08-21T06:15:35;7.93;;;3.80;;
44764;SDS011;30484;52.382;5.260;2023-08-21T06:18:04;7.30;;;3.40;;
44764;SDS011;30484;52.382;5.260;2023-08-21T06:20:34;8.80;;;3.60;;
44764;SDS011;30484;52.382;5.260;2023-08-21T06:23:02;11.07;;;3.83;;
44764;SDS011;30484;52.382;5.260;2023-08-21T06:25:32;9.45;;;3.42;;
44764;SDS011;30484;52.382;5.260;2023-08-21T06:28:00;16.10;;;3.33;;
44764;SDS011;30484;52.382;5.260;2023-08-21T06:30:29;11.27;;;3.20;;
44764;SDS011;30484;52.382;5.260;2023-08-21T06:32:57;12.77;;;3.50;;
44764;SDS011;30484;52.382;5.260;2023-08-21T06:35:26;11.15;;;2.95;;
44764;SDS011;30484;52.382;5.260;2023-08-21T06:37:55;12.73;;;3.10;;
44764;SDS011;30484;52.382;5.260;2023-08-21T06:40:24;11.18;;;3.05;;
44764;SDS011;30484;52.382;5.260;2023-08-21T06:42:53;8.68;;;2.78;;
44764;SDS011;30484;52.382;5.260;2023-08-21T06:45:22;12.65;;;3.65;;
44764;SDS011;30484;52.382;5.260;2023-08-21T06:47:51;12.23;;;2.90;;
44764;SDS011;30484;52.382;5.260;2023-08-21T06:50:19;11.55;;;2.95;;
44764;SDS011;30484;52.382;5.260;2023-08-21T06:52:48;10.77;;;2.75;;
44764;SDS011;30484;52.382;5.260;2023-08-21T06:55:18;9.60;;;2.47;;
44764;SDS011;30484;52.382;5.260;2023-08-21T06:57:47;11.52;;;2.85;;
44764;SDS011;30484;52.382;5.260;2023-08-21T07:00:16;12.45;;;2.40;;
44764;SDS011;30484;52.382;5.260;2023-08-21T07:02:47;5.90;;;2.20;;
44764;SDS011;30484;52.382;5.260;2023-08-21T07:05:17;8.60;;;2.10;;
44764;SDS011;30484;52.382;5.260;2023-08-21T07:07:46;9.65;;;2.33;;
44764;SDS011;30484;52.382;5.260;2023-08-21T07:10:14;8.73;;;1.90;;
44764;SDS011;30484;52.382;5.260;2023-08-21T07:12:45;11.07;;;2.10;;
44764;SDS011;30484;52.382;5.260;2023-08-21T07:15:14;10.65;;;2.13;;
44764;SDS011;30484;52.382;5.260;2023-08-21T07:17:43;8.82;;;1.85;;
44764;SDS011;30484;52.382;5.260;2023-08-21T07:20:11;12.15;;;2.10;;
44764;SDS011;30484;52.382;5.260;2023-08-21T07:22:40;11.73;;;2.00;;
44764;SDS011;30484;52.382;5.260;2023-08-21T07:25:08;8.93;;;2.08;;
44764;SDS011;30484;52.382;5.260;2023-08-21T07:27:37;9.30;;;2.10;;
44764;SDS011;30484;52.382;5.260;2023-08-21T07:30:08;10.15;;;1.90;;
44764;SDS011;30484;52.382;5.260;2023-08-21T07:32:37;10.27;;;1.75;;
44764;SDS011;30484;52.382;5.260;2023-08-21T07:35:07;12.52;;;2.00;;
44764;SDS011;30484;52.382;5.260;2023-08-21T07:37:37;8.35;;;2.28;;
44764;SDS011;30484;52.382;5.260;2023-08-21T07:40:07;9.80;;;2.15;;
44764;SDS011;30484;52.382;5.260;2023-08-21T07:42:36;9.40;;;1.75;;
44764;SDS011;30484;52.382;5.260;2023-08-21T07:45:07;9.52;;;1.90;;
44764;SDS011;30484;52.382;5.260;2023-08-21T07:47:37;8.73;;;2.63;;
44764;SDS011;30484;52.382;5.260;2023-08-21T07:50:06;10.93;;;2.05;;
44764;SDS011;30484;52.382;5.260;2023-08-21T07:52:35;7.32;;;1.92;;
44764;SDS011;30484;52.382;5.260;2023-08-21T07:55:05;8.05;;;2.20;;
44764;SDS011;30484;52.382;5.260;2023-08-21T07:57:35;12.25;;;2.30;;
44764;SDS011;30484;52.382;5.260;2023-08-21T08:00:04;10.20;;;2.30;;
44764;SDS011;30484;52.382;5.260;2023-08-21T08:02:36;10.00;;;2.03;;
44764;SDS011;30484;52.382;5.260;2023-08-21T08:05:05;11.57;;;1.77;;
44764;SDS011;30484;52.382;5.260;2023-08-21T08:07:35;9.27;;;1.60;;
44764;SDS011;30484;52.382;5.260;2023-08-21T08:10:04;11.38;;;1.80;;
44764;SDS011;30484;52.382;5.260;2023-08-21T08:12:33;9.95;;;2.17;;
44764;SDS011;30484;52.382;5.260;2023-08-21T08:15:02;11.00;;;2.35;;
44764;SDS011;30484;52.382;5.260;2023-08-21T08:17:33;9.77;;;2.05;;
44764;SDS011;30484;52.382;5.260;2023-08-21T08:20:01;9.00;;;1.73;;
44764;SDS011;30484;52.382;5.260;2023-08-21T08:22:32;10.15;;;1.50;;
44764;SDS011;30484;52.382;5.260;2023-08-21T08:25:01;5.75;;;1.63;;
44764;SDS011;30484;52.382;5.260;2023-08-21T08:27:33;18.95;;;1.83;;
44764;SDS011;30484;52.382;5.260;2023-08-21T08:30:01;10.55;;;2.03;;
44764;SDS011;30484;52.382;5.260;2023-08-21T08:32:30;11.23;;;1.95;;
44764;SDS011;30484;52.382;5.260;2023-08-21T08:35:02;6.30;;;1.48;;
44764;SDS011;30484;52.382;5.260;2023-08-21T08:37:31;9.20;;;1.75;;
44764;SDS011;30484;52.382;5.260;2023-08-21T08:40:03;11.55;;;2.05;;
44764;SDS011;30484;52.382;5.260;2023-08-21T08:42:34;6.72;;;1.58;;
44764;SDS011;30484;52.382;5.260;2023-08-21T08:45:04;7.20;;;1.67;;
44764;SDS011;30484;52.382;5.260;2023-08-21T08:47:35;13.40;;;1.85;;
44764;SDS011;30484;52.382;5.260;2023-08-21T08:50:04;7.97;;;1.92;;
44764;SDS011;30484;52.382;5.260;2023-08-21T08:52:36;7.93;;;2.40;;
44764;SDS011;30484;52.382;5.260;2023-08-21T08:55:07;5.63;;;1.42;;
44764;SDS011;30484;52.382;5.260;2023-08-21T08:57:37;6.32;;;1.70;;
44764;SDS011;30484;52.382;5.260;2023-08-21T09:00:06;11.27;;;2.25;;
44764;SDS011;30484;52.382;5.260;2023-08-21T09:02:38;12.98;;;2.08;;
44764;SDS011;30484;52.382;5.260;2023-08-21T09:05:07;9.40;;;1.90;;
44764;SDS011;30484;52.382;5.260;2023-08-21T09:07:36;7.63;;;1.45;;
44764;SDS011;30484;52.382;5.260;2023-08-21T09:10:05;7.20;;;1.85;;
44764;SDS011;30484;52.382;5.260;2023-08-21T09:12:44;9.18;;;1.70;;
44764;SDS011;30484;52.382;5.260;2023-08-21T09:15:14;10.13;;;2.20;;
44764;SDS011;30484;52.382;5.260;2023-08-21T09:17:43;9.43;;;2.10;;
44764;SDS011;30484;52.382;5.260;2023-08-21T09:20:21;10.27;;;1.92;;
44764;SDS011;30484;52.382;5.260;2023-08-21T09:22:53;4.68;;;1.67;;
44764;SDS011;30484;52.382;5.260;2023-08-21T09:25:23;9.82;;;1.98;;
44764;SDS011;30484;52.382;5.260;2023-08-21T09:27:52;5.95;;;1.70;;
44764;SDS011;30484;52.382;5.260;2023-08-21T09:30:21;8.27;;;2.08;;
44764;SDS011;30484;52.382;5.260;2023-08-21T09:32:54;7.55;;;1.60;;
44764;SDS011;30484;52.382;5.260;2023-08-21T09:35:26;7.03;;;1.92;;
44764;SDS011;30484;52.382;5.260;2023-08-21T09:38:00;6.80;;;1.90;;
44764;SDS011;30484;52.382;5.260;2023-08-21T09:40:29;8.07;;;1.90;;
44764;SDS011;30484;52.382;5.260;2023-08-21T09:42:58;8.45;;;1.90;;
44764;SDS011;30484;52.382;5.260;2023-08-21T09:45:27;8.98;;;1.85;;
44764;SDS011;30484;52.382;5.260;2023-08-21T09:47:57;7.78;;;1.95;;
44764;SDS011;30484;52.382;5.260;2023-08-21T09:50:26;10.52;;;2.42;;
44764;SDS011;30484;52.382;5.260;2023-08-21T09:52:57;7.63;;;2.00;;
44764;SDS011;30484;52.382;5.260;2023-08-21T09:55:26;9.55;;;2.47;;
44764;SDS011;30484;52.382;5.260;2023-08-21T09:57:58;10.00;;;2.42;;
44764;SDS011;30484;52.382;5.260;2023-08-21T10:00:32;10.23;;;2.05;;
44764;SDS011;30484;52.382;5.260;2023-08-21T10:03:04;9.40;;;2.55;;
44764;SDS011;30484;52.382;5.260;2023-08-21T10:05:35;8.68;;;2.45;;
44764;SDS011;30484;52.382;5.260;2023-08-21T10:08:05;9.38;;;2.45;;
44764;SDS011;30484;52.382;5.260;2023-08-21T10:10:37;10.45;;;2.70;;
44764;SDS011;30484;52.382;5.260;2023-08-21T10:13:07;14.02;;;2.63;;
44764;SDS011;30484;52.382;5.260;2023-08-21T10:15:37;10.15;;;2.20;;
44764;SDS011;30484;52.382;5.260;2023-08-21T10:18:19;12.15;;;2.63;;
44764;SDS011;30484;52.382;5.260;2023-08-21T10:20:51;9.75;;;2.13;;
44764;SDS011;30484;52.382;5.260;2023-08-21T10:23:25;10.13;;;2.05;;
44764;SDS011;30484;52.382;5.260;2023-08-21T10:25:56;12.93;;;2.45;;
44764;SDS011;30484;52.382;5.260;2023-08-21T10:28:40;8.60;;;1.90;;
44764;SDS011;30484;52.382;5.260;2023-08-21T10:31:26;8.82;;;2.28;;
44764;SDS011;30484;52.382;5.260;2023-08-21T10:34:07;12.57;;;2.17;;
44764;SDS011;30484;52.382;5.260;2023-08-21T10:39:36;14.43;;;2.55;;
44764;SDS011;30484;52.382;5.260;2023-08-21T10:42:07;8.32;;;1.80;;
44764;SDS011;30484;52.382;5.260;2023-08-21T10:44:47;5.18;;;1.38;;
44764;SDS011;30484;52.382;5.260;2023-08-21T10:47:20;8.13;;;2.00;;
44764;SDS011;30484;52.382;5.260;2023-08-21T10:49:52;7.80;;;2.05;;
44764;SDS011;30484;52.382;5.260;2023-08-21T10:52:23;8.20;;;2.05;;
44764;SDS011;30484;52.382;5.260;2023-08-21T10:54:53;11.23;;;2.35;;
44764;SDS011;30484;52.382;5.260;2023-08-21T10:57:25;9.68;;;2.22;;
44764;SDS011;30484;52.382;5.260;2023-08-21T10:59:56;8.27;;;2.05;;
44764;SDS011;30484;52.382;5.260;2023-08-21T11:02:26;10.27;;;2.30;;
44764;SDS011;30484;52.382;5.260;2023-08-21T11:04:58;8.05;;;2.42;;
44764;SDS011;30484;52.382;5.260;2023-08-21T11:07:29;8.80;;;2.22;;
44764;SDS011;30484;52.382;5.260;2023-08-21T11:10:04;10.30;;;2.00;;
44764;SDS011;30484;52.382;5.260;2023-08-21T11:12:37;7.47;;;1.60;;
44764;SDS011;30484;52.382;5.260;2023-08-21T11:15:15;6.65;;;1.50;;
44764;SDS011;30484;52.382;5.260;2023-08-21T11:17:53;8.45;;;1.60;;
44764;SDS011;30484;52.382;5.260;2023-08-21T11:20:28;4.55;;;1.50;;
44764;SDS011;30484;52.382;5.260;2023-08-21T11:22:57;7.07;;;1.60;;
44764;SDS011;30484;52.382;5.260;2023-08-21T11:25:27;12.00;;;1.80;;
44764;SDS011;30484;52.382;5.260;2023-08-21T11:27:55;6.60;;;1.48;;
44764;SDS011;30484;52.382;5.260;2023-08-21T11:30:24;5.82;;;1.38;;
44764;SDS011;30484;52.382;5.260;2023-08-21T11:33:05;7.22;;;1.60;;
44764;SDS011;30484;52.382;5.260;2023-08-21T11:35:37;5.28;;;1.52;;
44764;SDS011;30484;52.382;5.260;2023-08-21T11:38:06;10.10;;;1.92;;
44764;SDS011;30484;52.382;5.260;2023-08-21T11:40:50;5.65;;;1.55;;
44764;SDS011;30484;52.382;5.260;2023-08-21T11:43:20;6.47;;;1.35;;
44764;SDS011;30484;52.382;5.260;2023-08-21T11:45:49;7.00;;;1.55;;
44764;SDS011;30484;52.382;5.260;2023-08-21T11:48:24;4.32;;;1.45;;
44764;SDS011;30484;52.382;5.260;2023-08-21T11:50:54;5.72;;;1.20;;
44764;SDS011;30484;52.382;5.260;2023-08-21T11:53:30;5.43;;;1.33;;
44764;SDS011;30484;52.382;5.260;2023-08-21T11:56:00;6.20;;;1.25;;
44764;SDS011;30484;52.382;5.260;2023-08-21T11:58:28;5.70;;;1.25;;
44764;SDS011;30484;52.382;5.260;2023-08-21T12:01:01;6.93;;;1.50;;
44764;SDS011;30484;52.382;5.260;2023-08-21T12:03:35;10.40;;;1.80;;
44764;SDS011;30484;52.382;5.260;2023-08-21T12:06:07;4.90;;;1.33;;
44764;SDS011;30484;52.382;5.260;2023-08-21T12:08:36;5.38;;;1.30;;
44764;SDS011;30484;52.382;5.260;2023-08-21T12:11:04;3.90;;;1.00;;
44764;SDS011;30484;52.382;5.260;2023-08-21T12:13:34;6.18;;;1.38;;
44764;SDS011;30484;52.382;5.260;2023-08-21T12:16:02;4.43;;;1.25;;
44764;SDS011;30484;52.382;5.260;2023-08-21T12:18:31;6.07;;;1.40;;
44764;SDS011;30484;52.382;5.260;2023-08-21T12:21:00;6.63;;;1.00;;
44764;SDS011;30484;52.382;5.260;2023-08-21T12:23:29;3.78;;;1.20;;
44764;SDS011;30484;52.382;5.260;2023-08-21T12:25:59;4.95;;;1.02;;
44764;SDS011;30484;52.382;5.260;2023-08-21T12:28:27;6.70;;;1.42;;
44764;SDS011;30484;52.382;5.260;2023-08-21T12:30:56;4.72;;;1.20;;
44764;SDS011;30484;52.382;5.260;2023-08-21T12:33:25;5.70;;;1.30;;
44764;SDS011;30484;52.382;5.260;2023-08-21T12:35:53;5.50;;;1.30;;
44764;SDS011;30484;52.382;5.260;2023-08-21T12:38:22;4.82;;;1.45;;
44764;SDS011;30484;52.382;5.260;2023-08-21T12:40:57;6.07;;;1.40;;
44764;SDS011;30484;52.382;5.260;2023-08-21T12:43:25;3.58;;;1.10;;
44764;SDS011;30484;52.382;5.260;2023-08-21T12:45:58;6.53;;;1.58;;
44764;SDS011;30484;52.382;5.260;2023-08-21T12:48:27;4.15;;;1.27;;
44764;SDS011;30484;52.382;5.260;2023-08-21T12:50:55;7.47;;;1.60;;
44764;SDS011;30484;52.382;5.260;2023-08-21T12:53:24;4.53;;;1.17;;
44764;SDS011;30484;52.382;5.260;2023-08-21T12:55:52;4.55;;;1.55;;
44764;SDS011;30484;52.382;5.260;2023-08-21T12:58:22;7.38;;;1.50;;
44764;SDS011;30484;52.382;5.260;2023-08-21T13:00:51;5.78;;;1.48;;
44764;SDS011;30484;52.382;5.260;2023-08-21T13:03:19;5.30;;;1.23;;
44764;SDS011;30484;52.382;5.260;2023-08-21T13:05:48;2.97;;;1.13;;
44764;SDS011;30484;52.382;5.260;2023-08-21T13:08:16;2.55;;;1.20;;
44764;SDS011;30484;52.382;5.260;2023-08-21T13:10:45;4.72;;;1.30;;
44764;SDS011;30484;52.382;5.260;2023-08-21T13:13:13;7.35;;;1.17;;
44764;SDS011;30484;52.382;5.260;2023-08-21T13:15:43;5.25;;;1.40;;
44764;SDS011;30484;52.382;5.260;2023-08-21T13:18:13;5.22;;;1.30;;
44764;SDS011;30484;52.382;5.260;2023-08-21T13:20:42;4.85;;;1.42;;
44764;SDS011;30484;52.382;5.260;2023-08-21T13:23:10;6.30;;;1.35;;
44764;SDS011;30484;52.382;5.260;2023-08-21T13:25:38;9.10;;;1.70;;
44764;SDS011;30484;52.382;5.260;2023-08-21T13:28:07;6.32;;;1.33;;
44764;SDS011;30484;52.382;5.260;2023-08-21T13:30:37;5.43;;;1.15;;
44764;SDS011;30484;52.382;5.260;2023-08-21T13:33:07;3.53;;;1.15;;
44764;SDS011;30484;52.382;5.260;2023-08-21T13:35:36;7.28;;;1.55;;
44764;SDS011;30484;52.382;5.260;2023-08-21T13:38:04;8.55;;;1.58;;
44764;SDS011;30484;52.382;5.260;2023-08-21T13:40:36;4.22;;;1.13;;
44764;SDS011;30484;52.382;5.260;2023-08-21T13:43:05;3.90;;;1.20;;
44764;SDS011;30484;52.382;5.260;2023-08-21T13:45:36;8.48;;;1.65;;
44764;SDS011;30484;52.382;5.260;2023-08-21T13:48:08;6.28;;;1.42;;
44764;SDS011;30484;52.382;5.260;2023-08-21T13:50:37;6.97;;;1.25;;
44764;SDS011;30484;52.382;5.260;2023-08-21T13:53:05;3.95;;;1.02;;
44764;SDS011;30484;52.382;5.260;2023-08-21T13:55:34;4.50;;;1.30;;
44764;SDS011;30484;52.382;5.260;2023-08-21T13:58:02;4.38;;;1.33;;
44764;SDS011;30484;52.382;5.260;2023-08-21T14:00:31;4.93;;;1.30;;
44764;SDS011;30484;52.382;5.260;2023-08-21T14:03:00;4.15;;;1.20;;
44764;SDS011;30484;52.382;5.260;2023-08-21T14:05:30;3.95;;;1.27;;
44764;SDS011;30484;52.382;5.260;2023-08-21T14:08:00;3.75;;;1.08;;
44764;SDS011;30484;52.382;5.260;2023-08-21T14:10:28;4.55;;;1.30;;
44764;SDS011;30484;52.382;5.260;2023-08-21T14:12:57;7.28;;;1.45;;
44764;SDS011;30484;52.382;5.260;2023-08-21T14:15:26;5.57;;;1.40;;
44764;SDS011;30484;52.382;5.260;2023-08-21T14:17:54;5.18;;;1.20;;
44764;SDS011;30484;52.382;5.260;2023-08-21T14:20:23;5.10;;;1.15;;
44764;SDS011;30484;52.382;5.260;2023-08-21T14:22:53;4.47;;;1.10;;
44764;SDS011;30484;52.382;5.260;2023-08-21T14:25:22;4.70;;;1.10;;
44764;SDS011;30484;52.382;5.260;2023-08-21T14:27:51;4.60;;;1.15;;
44764;SDS011;30484;52.382;5.260;2023-08-21T14:30:20;4.72;;;1.33;;
44764;SDS011;30484;52.382;5.260;2023-08-21T14:32:48;6.22;;;1.15;;
44764;SDS011;30484;52.382;5.260;2023-08-21T14:35:17;6.03;;;1.30;;
44764;SDS011;30484;52.382;5.260;2023-08-21T14:37:45;5.88;;;1.30;;
44764;SDS011;30484;52.382;5.260;2023-08-21T14:40:15;3.75;;;1.20;;
44764;SDS011;30484;52.382;5.260;2023-08-21T14:42:43;4.43;;;1.10;;
44764;SDS011;30484;52.382;5.260;2023-08-21T14:45:12;5.60;;;1.20;;
44764;SDS011;30484;52.382;5.260;2023-08-21T14:47:41;4.00;;;0.98;;
44764;SDS011;30484;52.382;5.260;2023-08-21T14:50:10;6.30;;;1.30;;
44764;SDS011;30484;52.382;5.260;2023-08-21T14:52:38;4.25;;;1.10;;
44764;SDS011;30484;52.382;5.260;2023-08-21T14:55:07;3.17;;;1.05;;
44764;SDS011;30484;52.382;5.260;2023-08-21T14:57:37;7.53;;;1.55;;
44764;SDS011;30484;52.382;5.260;2023-08-21T15:00:06;6.05;;;1.25;;
44764;SDS011;30484;52.382;5.260;2023-08-21T15:02:36;6.95;;;1.50;;
44764;SDS011;30484;52.382;5.260;2023-08-21T15:05:05;4.65;;;1.10;;
44764;SDS011;30484;52.382;5.260;2023-08-21T15:07:35;5.00;;;1.23;;